sensor_id;sensor_type;location;lat;lon;timestamp;pressure;altitude;pressure_sealevel;temperature
67822;BMP180;54434;50.096;20.082;2023-04-03T00:00:30;99111.40;;;1.68
67822;BMP180;54434;50.096;20.082;2023-04-03T00:03:22;99116.00;;;1.60
67822;BMP180;54434;50.096;20.082;2023-04-03T00:05:59;99122.00;;;1.60
67822;BMP180;54434;50.096;20.082;2023-04-03T00:08:36;99118.80;;;1.60
67822;BMP180;54434;50.096;20.082;2023-04-03T00:11:12;99119.40;;;1.60
67822;BMP180;54434;50.096;20.082;2023-04-03T00:13:50;99118.80;;;1.60
67822;BMP180;54434;50.096;20.082;2023-04-03T00:16:27;99118.40;;;1.60
67822;BMP180;54434;50.096;20.082;2023-04-03T00:19:03;99112.80;;;1.52
67822;BMP180;54434;50.096;20.082;2023-04-03T00:21:40;99112.00;;;1.50
67822;BMP180;54434;50.096;20.082;2023-04-03T00:24:16;99115.40;;;1.50
67822;BMP180;54434;50.096;20.082;2023-04-03T00:26:53;99114.80;;;1.46
67822;BMP180;54434;50.096;20.082;2023-04-03T00:29:29;99117.00;;;1.40
67822;BMP180;54434;50.096;20.082;2023-04-03T00:32:06;99116.20;;;1.40
67822;BMP180;54434;50.096;20.082;2023-04-03T00:34:42;99117.20;;;1.32
67822;BMP180;54434;50.096;20.082;2023-04-03T00:37:19;99117.60;;;1.30
67822;BMP180;54434;50.096;20.082;2023-04-03T00:39:55;99125.00;;;1.30
67822;BMP180;54434;50.096;20.082;2023-04-03T00:42:32;99128.20;;;1.20
67822;BMP180;54434;50.096;20.082;2023-04-03T00:45:36;99131.40;;;1.20
67822;BMP180;54434;50.096;20.082;2023-04-03T00:48:20;99127.40;;;1.18
67822;BMP180;54434;50.096;20.082;2023-04-03T00:50:57;99129.80;;;1.10
67822;BMP180;54434;50.096;20.082;2023-04-03T00:53:41;99130.20;;;1.08
67822;BMP180;54434;50.096;20.082;2023-04-03T00:56:23;99132.20;;;1.00
67822;BMP180;54434;50.096;20.082;2023-04-03T00:59:07;99138.20;;;1.00
67822;BMP180;54434;50.096;20.082;2023-04-03T01:01:45;99139.60;;;0.96
67822;BMP180;54434;50.096;20.082;2023-04-03T01:04:34;99139.20;;;0.90
67822;BMP180;54434;50.096;20.082;2023-04-03T01:07:18;99137.00;;;0.90
67822;BMP180;54434;50.096;20.082;2023-04-03T01:10:01;99143.80;;;0.86
67822;BMP180;54434;50.096;20.082;2023-04-03T01:12:41;99142.60;;;0.80
67822;BMP180;54434;50.096;20.082;2023-04-03T01:15:24;99140.60;;;0.80
67822;BMP180;54434;50.096;20.082;2023-04-03T01:18:01;99140.40;;;0.80
67822;BMP180;54434;50.096;20.082;2023-04-03T01:21:30;99141.00;;;0.76
67822;BMP180;54434;50.096;20.082;2023-04-03T01:24:33;99148.00;;;0.70
67822;BMP180;54434;50.096;20.082;2023-04-03T01:27:13;99152.00;;;0.70
67822;BMP180;54434;50.096;20.082;2023-04-03T01:29:49;99147.20;;;0.70
67822;BMP180;54434;50.096;20.082;2023-04-03T01:32:26;99148.40;;;0.76
67822;BMP180;54434;50.096;20.082;2023-04-03T01:35:03;99150.00;;;0.80
67822;BMP180;54434;50.096;20.082;2023-04-03T01:37:40;99154.40;;;0.78
67822;BMP180;54434;50.096;20.082;2023-04-03T01:40:17;99153.40;;;0.74
67822;BMP180;54434;50.096;20.082;2023-04-03T01:42:54;99153.80;;;0.72
67822;BMP180;54434;50.096;20.082;2023-04-03T01:45:31;99157.00;;;0.76
67822;BMP180;54434;50.096;20.082;2023-04-03T01:48:07;99156.40;;;0.76
67822;BMP180;54434;50.096;20.082;2023-04-03T01:50:44;99157.20;;;0.72
67822;BMP180;54434;50.096;20.082;2023-04-03T01:53:21;99160.80;;;0.70
67822;BMP180;54434;50.096;20.082;2023-04-03T01:55:57;99164.20;;;0.70
67822;BMP180;54434;50.096;20.082;2023-04-03T01:58:34;99164.00;;;0.70
67822;BMP180;54434;50.096;20.082;2023-04-03T02:01:11;99162.20;;;0.70
67822;BMP180;54434;50.096;20.082;2023-04-03T02:03:47;99164.60;;;0.70
67822;BMP180;54434;50.096;20.082;2023-04-03T02:06:24;99166.80;;;0.70
67822;BMP180;54434;50.096;20.082;2023-04-03T02:09:01;99168.00;;;0.70
67822;BMP180;54434;50.096;20.082;2023-04-03T02:11:38;99168.20;;;0.70
67822;BMP180;54434;50.096;20.082;2023-04-03T02:14:14;99171.00;;;0.70
67822;BMP180;54434;50.096;20.082;2023-04-03T02:16:51;99175.00;;;0.70
67822;BMP180;54434;50.096;20.082;2023-04-03T02:19:30;99165.60;;;0.70
67822;BMP180;54434;50.096;20.082;2023-04-03T02:22:07;99165.00;;;0.70
67822;BMP180;54434;50.096;20.082;2023-04-03T02:24:43;99171.40;;;0.70
67822;BMP180;54434;50.096;20.082;2023-04-03T02:27:20;99169.80;;;0.70
67822;BMP180;54434;50.096;20.082;2023-04-03T02:29:56;99172.60;;;0.70
67822;BMP180;54434;50.096;20.082;2023-04-03T02:32:33;99174.40;;;0.70
67822;BMP180;54434;50.096;20.082;2023-04-03T02:35:11;99173.40;;;0.70
67822;BMP180;54434;50.096;20.082;2023-04-03T02:37:48;99176.00;;;0.70
67822;BMP180;54434;50.096;20.082;2023-04-03T02:40:24;99174.40;;;0.66
67822;BMP180;54434;50.096;20.082;2023-04-03T02:43:00;99176.80;;;0.60
67822;BMP180;54434;50.096;20.082;2023-04-03T02:45:37;99178.00;;;0.60
67822;BMP180;54434;50.096;20.082;2023-04-03T02:48:14;99181.00;;;0.60
67822;BMP180;54434;50.096;20.082;2023-04-03T02:50:52;99180.40;;;0.60
67822;BMP180;54434;50.096;20.082;2023-04-03T02:53:28;99187.00;;;0.60
67822;BMP180;54434;50.096;20.082;2023-04-03T02:56:06;99189.80;;;0.60
67822;BMP180;54434;50.096;20.082;2023-04-03T02:58:42;99187.80;;;0.60
67822;BMP180;54434;50.096;20.082;2023-04-03T03:01:19;99193.60;;;0.56
67822;BMP180;54434;50.096;20.082;2023-04-03T03:03:55;99193.20;;;0.50
67822;BMP180;54434;50.096;20.082;2023-04-03T03:06:33;99193.80;;;0.50
67822;BMP180;54434;50.096;20.082;2023-04-03T03:09:10;99190.40;;;0.50
67822;BMP180;54434;50.096;20.082;2023-04-03T03:11:50;99192.20;;;0.50
67822;BMP180;54434;50.096;20.082;2023-04-03T03:14:26;99189.20;;;0.50
67822;BMP180;54434;50.096;20.082;2023-04-03T03:17:02;99187.60;;;0.50
67822;BMP180;54434;50.096;20.082;2023-04-03T03:19:38;99188.00;;;0.50
67822;BMP180;54434;50.096;20.082;2023-04-03T03:22:15;99186.60;;;0.50
67822;BMP180;54434;50.096;20.082;2023-04-03T03:24:52;99190.40;;;0.50
67822;BMP180;54434;50.096;20.082;2023-04-03T03:27:29;99187.80;;;0.50
67822;BMP180;54434;50.096;20.082;2023-04-03T03:30:08;99193.00;;;0.50
67822;BMP180;54434;50.096;20.082;2023-04-03T03:32:44;99193.60;;;0.50
67822;BMP180;54434;50.096;20.082;2023-04-03T03:35:21;99199.60;;;0.50
67822;BMP180;54434;50.096;20.082;2023-04-03T03:37:57;99196.80;;;0.50
67822;BMP180;54434;50.096;20.082;2023-04-03T03:40:34;99196.40;;;0.50
67822;BMP180;54434;50.096;20.082;2023-04-03T03:43:10;99199.40;;;0.50
67822;BMP180;54434;50.096;20.082;2023-04-03T03:45:51;99195.80;;;0.50
67822;BMP180;54434;50.096;20.082;2023-04-03T03:48:29;99196.60;;;0.50
67822;BMP180;54434;50.096;20.082;2023-04-03T03:51:06;99207.00;;;0.50
67822;BMP180;54434;50.096;20.082;2023-04-03T03:53:45;99210.00;;;0.50
67822;BMP180;54434;50.096;20.082;2023-04-03T03:56:23;99210.60;;;0.50
67822;BMP180;54434;50.096;20.082;2023-04-03T03:59:00;99206.00;;;0.50
67822;BMP180;54434;50.096;20.082;2023-04-03T04:01:38;99210.80;;;0.48
67822;BMP180;54434;50.096;20.082;2023-04-03T04:04:15;99214.60;;;0.50
67822;BMP180;54434;50.096;20.082;2023-04-03T04:06:52;99221.40;;;0.48
67822;BMP180;54434;50.096;20.082;2023-04-03T04:09:29;99223.40;;;0.44
67822;BMP180;54434;50.096;20.082;2023-04-03T04:12:06;99224.20;;;0.40
67822;BMP180;54434;50.096;20.082;2023-04-03T04:14:43;99226.60;;;0.40
67822;BMP180;54434;50.096;20.082;2023-04-03T04:17:22;99227.40;;;0.40
67822;BMP180;54434;50.096;20.082;2023-04-03T04:19:59;99228.20;;;0.40
67822;BMP180;54434;50.096;20.082;2023-04-03T04:22:37;99228.60;;;0.40
67822;BMP180;54434;50.096;20.082;2023-04-03T04:25:14;99228.00;;;0.40
67822;BMP180;54434;50.096;20.082;2023-04-03T04:27:51;99232.80;;;0.40
67822;BMP180;54434;50.096;20.082;2023-04-03T04:30:28;99237.60;;;0.40
67822;BMP180;54434;50.096;20.082;2023-04-03T04:33:06;99241.20;;;0.40
67822;BMP180;54434;50.096;20.082;2023-04-03T04:35:46;99243.60;;;0.30
67822;BMP180;54434;50.096;20.082;2023-04-03T04:38:23;99248.40;;;0.30
67822;BMP180;54434;50.096;20.082;2023-04-03T04:41:00;99243.60;;;0.30
67822;BMP180;54434;50.096;20.082;2023-04-03T04:43:37;99251.20;;;0.30
67822;BMP180;54434;50.096;20.082;2023-04-03T04:46:15;99252.60;;;0.30
67822;BMP180;54434;50.096;20.082;2023-04-03T04:48:55;99252.00;;;0.30
67822;BMP180;54434;50.096;20.082;2023-04-03T04:51:32;99249.20;;;0.30
67822;BMP180;54434;50.096;20.082;2023-04-03T04:54:19;99250.00;;;0.30
67822;BMP180;54434;50.096;20.082;2023-04-03T04:56:56;99257.20;;;0.28
67822;BMP180;54434;50.096;20.082;2023-04-03T04:59:33;99256.00;;;0.20
67822;BMP180;54434;50.096;20.082;2023-04-03T05:02:10;99256.40;;;0.26
67822;BMP180;54434;50.096;20.082;2023-04-03T05:04:48;99265.20;;;0.30
67822;BMP180;54434;50.096;20.082;2023-04-03T05:07:28;99265.40;;;0.30
67822;BMP180;54434;50.096;20.082;2023-04-03T05:10:07;99267.80;;;0.30
67822;BMP180;54434;50.096;20.082;2023-04-03T05:12:44;99272.40;;;0.30
67822;BMP180;54434;50.096;20.082;2023-04-03T05:15:20;99274.80;;;0.30
67822;BMP180;54434;50.096;20.082;2023-04-03T05:17:57;99279.60;;;0.30
67822;BMP180;54434;50.096;20.082;2023-04-03T05:20:34;99281.80;;;0.34
67822;BMP180;54434;50.096;20.082;2023-04-03T05:23:12;99281.80;;;0.32
67822;BMP180;54434;50.096;20.082;2023-04-03T05:25:49;99286.20;;;0.36
67822;BMP180;54434;50.096;20.082;2023-04-03T05:28:26;99286.00;;;0.34
67822;BMP180;54434;50.096;20.082;2023-04-03T05:31:02;99285.80;;;0.38
67822;BMP180;54434;50.096;20.082;2023-04-03T05:33:42;99288.60;;;0.38
67822;BMP180;54434;50.096;20.082;2023-04-03T05:36:21;99293.80;;;0.36
67822;BMP180;54434;50.096;20.082;2023-04-03T05:39:01;99286.60;;;0.34
67822;BMP180;54434;50.096;20.082;2023-04-03T05:41:38;99290.40;;;0.30
67822;BMP180;54434;50.096;20.082;2023-04-03T05:44:14;99294.00;;;0.32
67822;BMP180;54434;50.096;20.082;2023-04-03T05:46:51;99300.40;;;0.32
67822;BMP180;54434;50.096;20.082;2023-04-03T05:49:28;99297.60;;;0.36
67822;BMP180;54434;50.096;20.082;2023-04-03T05:52:05;99297.80;;;0.40
67822;BMP180;54434;50.096;20.082;2023-04-03T05:54:41;99298.40;;;0.42
67822;BMP180;54434;50.096;20.082;2023-04-03T05:57:23;99307.20;;;0.50
67822;BMP180;54434;50.096;20.082;2023-04-03T06:00:00;99312.80;;;0.58
67822;BMP180;54434;50.096;20.082;2023-04-03T06:02:37;99313.00;;;0.60
67822;BMP180;54434;50.096;20.082;2023-04-03T06:05:15;99319.60;;;0.70
67822;BMP180;54434;50.096;20.082;2023-04-03T06:07:51;99316.40;;;0.70
67822;BMP180;54434;50.096;20.082;2023-04-03T06:10:27;99320.20;;;0.70
67822;BMP180;54434;50.096;20.082;2023-04-03T06:13:04;99320.00;;;0.80
67822;BMP180;54434;50.096;20.082;2023-04-03T06:15:41;99326.20;;;0.80
67822;BMP180;54434;50.096;20.082;2023-04-03T06:18:17;99325.80;;;0.80
67822;BMP180;54434;50.096;20.082;2023-04-03T06:20:54;99326.20;;;0.82
67822;BMP180;54434;50.096;20.082;2023-04-03T06:23:31;99324.60;;;0.92
67822;BMP180;54434;50.096;20.082;2023-04-03T06:26:07;99330.00;;;1.00
67822;BMP180;54434;50.096;20.082;2023-04-03T06:28:44;99331.40;;;1.10
67822;BMP180;54434;50.096;20.082;2023-04-03T06:31:20;99331.40;;;1.16
67822;BMP180;54434;50.096;20.082;2023-04-03T06:33:57;99335.80;;;1.30
67822;BMP180;54434;50.096;20.082;2023-04-03T06:36:33;99341.00;;;1.30
67822;BMP180;54434;50.096;20.082;2023-04-03T06:39:15;99343.20;;;1.30
67822;BMP180;54434;50.096;20.082;2023-04-03T06:41:51;99350.80;;;1.30
67822;BMP180;54434;50.096;20.082;2023-04-03T06:44:36;99350.40;;;1.38
67822;BMP180;54434;50.096;20.082;2023-04-03T06:47:15;99348.40;;;1.40
67822;BMP180;54434;50.096;20.082;2023-04-03T06:49:52;99353.20;;;1.50
67822;BMP180;54434;50.096;20.082;2023-04-03T06:52:31;99351.80;;;1.60
67822;BMP180;54434;50.096;20.082;2023-04-03T06:55:10;99355.40;;;1.66
67822;BMP180;54434;50.096;20.082;2023-04-03T06:57:46;99356.80;;;1.72
67822;BMP180;54434;50.096;20.082;2023-04-03T07:00:24;99352.40;;;1.86
67822;BMP180;54434;50.096;20.082;2023-04-03T07:03:00;99364.00;;;2.00
67822;BMP180;54434;50.096;20.082;2023-04-03T07:05:37;99358.60;;;2.10
67822;BMP180;54434;50.096;20.082;2023-04-03T07:08:15;99358.00;;;2.20
67822;BMP180;54434;50.096;20.082;2023-04-03T07:10:51;99367.00;;;2.40
67822;BMP180;54434;50.096;20.082;2023-04-03T07:13:28;99370.00;;;2.70
67822;BMP180;54434;50.096;20.082;2023-04-03T07:16:06;99371.00;;;3.12
67822;BMP180;54434;50.096;20.082;2023-04-03T07:18:43;99374.80;;;3.58
67822;BMP180;54434;50.096;20.082;2023-04-03T07:21:20;99371.80;;;3.96
67822;BMP180;54434;50.096;20.082;2023-04-03T07:23:57;99373.00;;;4.30
67822;BMP180;54434;50.096;20.082;2023-04-03T07:26:33;99382.00;;;4.80
67822;BMP180;54434;50.096;20.082;2023-04-03T07:29:10;99384.60;;;5.12
67822;BMP180;54434;50.096;20.082;2023-04-03T07:31:47;99390.20;;;5.46
67822;BMP180;54434;50.096;20.082;2023-04-03T07:34:24;99391.20;;;5.60
67822;BMP180;54434;50.096;20.082;2023-04-03T07:37:01;99393.00;;;5.50
67822;BMP180;54434;50.096;20.082;2023-04-03T07:39:37;99395.40;;;5.50
67822;BMP180;54434;50.096;20.082;2023-04-03T07:42:14;99401.40;;;5.40
67822;BMP180;54434;50.096;20.082;2023-04-03T07:44:50;99409.20;;;5.32
67822;BMP180;54434;50.096;20.082;2023-04-03T07:47:27;99410.20;;;5.10
67822;BMP180;54434;50.096;20.082;2023-04-03T07:50:04;99411.20;;;5.00
67822;BMP180;54434;50.096;20.082;2023-04-03T07:57:18;99417.20;;;5.06
67822;BMP180;54434;50.096;20.082;2023-04-03T07:59:55;99414.40;;;5.30
67822;BMP180;54434;50.096;20.082;2023-04-03T08:02:31;99417.00;;;5.36
67822;BMP180;54434;50.096;20.082;2023-04-03T08:05:10;99424.20;;;5.68
67822;BMP180;54434;50.096;20.082;2023-04-03T08:07:46;99421.60;;;6.00
67822;BMP180;54434;50.096;20.082;2023-04-03T08:10:23;99423.80;;;5.98
67822;BMP180;54434;50.096;20.082;2023-04-03T08:13:00;99421.40;;;6.00
67822;BMP180;54434;50.096;20.082;2023-04-03T08:15:37;99416.00;;;5.80
67822;BMP180;54434;50.096;20.082;2023-04-03T08:18:14;99416.60;;;5.62
67822;BMP180;54434;50.096;20.082;2023-04-03T08:20:51;99425.00;;;5.30
67822;BMP180;54434;50.096;20.082;2023-04-03T08:23:27;99421.20;;;5.00
67822;BMP180;54434;50.096;20.082;2023-04-03T08:26:12;99424.20;;;4.74
67822;BMP180;54434;50.096;20.082;2023-04-03T08:28:49;99429.40;;;4.50
67822;BMP180;54434;50.096;20.082;2023-04-03T08:31:25;99434.80;;;4.16
67822;BMP180;54434;50.096;20.082;2023-04-03T08:34:02;99441.80;;;3.78
67822;BMP180;54434;50.096;20.082;2023-04-03T08:36:39;99437.00;;;3.50
67822;BMP180;54434;50.096;20.082;2023-04-03T08:39:16;99440.00;;;3.30
67822;BMP180;54434;50.096;20.082;2023-04-03T08:41:52;99440.20;;;3.10
67822;BMP180;54434;50.096;20.082;2023-04-03T08:44:48;99440.40;;;2.92
67822;BMP180;54434;50.096;20.082;2023-04-03T08:47:40;99447.00;;;2.70
67822;BMP180;54434;50.096;20.082;2023-04-03T08:50:23;99449.40;;;2.60
67822;BMP180;54434;50.096;20.082;2023-04-03T08:53:10;99455.60;;;2.42
67822;BMP180;54434;50.096;20.082;2023-04-03T08:55:51;99454.60;;;2.40
67822;BMP180;54434;50.096;20.082;2023-04-03T08:58:30;99454.60;;;2.40
67822;BMP180;54434;50.096;20.082;2023-04-03T09:01:22;99458.60;;;2.30
67822;BMP180;54434;50.096;20.082;2023-04-03T09:04:02;99466.20;;;2.28
67822;BMP180;54434;50.096;20.082;2023-04-03T09:06:41;99465.00;;;2.20
67822;BMP180;54434;50.096;20.082;2023-04-03T09:09:32;99465.80;;;2.10
67822;BMP180;54434;50.096;20.082;2023-04-03T09:12:23;99466.80;;;1.90
67822;BMP180;54434;50.096;20.082;2023-04-03T09:15:18;99467.40;;;1.80
67822;BMP180;54434;50.096;20.082;2023-04-03T09:18:23;99473.20;;;1.70
67822;BMP180;54434;50.096;20.082;2023-04-03T09:21:13;99477.60;;;1.60
67822;BMP180;54434;50.096;20.082;2023-04-03T09:23:57;99479.20;;;1.58
67822;BMP180;54434;50.096;20.082;2023-04-03T09:26:41;99485.40;;;1.50
67822;BMP180;54434;50.096;20.082;2023-04-03T09:29:23;99486.40;;;1.40
67822;BMP180;54434;50.096;20.082;2023-04-03T09:32:12;99486.80;;;1.48
67822;BMP180;54434;50.096;20.082;2023-04-03T09:34:56;99493.80;;;1.48
67822;BMP180;54434;50.096;20.082;2023-04-03T09:37:43;99488.20;;;1.44
67822;BMP180;54434;50.096;20.082;2023-04-03T09:40:50;99497.20;;;1.50
67822;BMP180;54434;50.096;20.082;2023-04-03T09:43:31;99501.60;;;1.50
67822;BMP180;54434;50.096;20.082;2023-04-03T09:46:33;99499.20;;;1.60
67822;BMP180;54434;50.096;20.082;2023-04-03T09:49:14;99502.60;;;1.60
67822;BMP180;54434;50.096;20.082;2023-04-03T09:51:51;99509.20;;;1.60
67822;BMP180;54434;50.096;20.082;2023-04-03T09:54:42;99510.40;;;1.60
67822;BMP180;54434;50.096;20.082;2023-04-03T09:57:18;99503.80;;;1.70
67822;BMP180;54434;50.096;20.082;2023-04-03T10:00:06;99510.40;;;1.80
67822;BMP180;54434;50.096;20.082;2023-04-03T10:02:58;99510.20;;;1.80
67822;BMP180;54434;50.096;20.082;2023-04-03T10:05:39;99515.20;;;1.88
67822;BMP180;54434;50.096;20.082;2023-04-03T10:08:30;99519.40;;;1.88
67822;BMP180;54434;50.096;20.082;2023-04-03T10:11:16;99526.40;;;1.90
67822;BMP180;54434;50.096;20.082;2023-04-03T10:13:59;99522.00;;;1.90
67822;BMP180;54434;50.096;20.082;2023-04-03T10:16:50;99524.00;;;2.00
67822;BMP180;54434;50.096;20.082;2023-04-03T10:19:39;99522.40;;;2.00
67822;BMP180;54434;50.096;20.082;2023-04-03T10:22:32;99522.40;;;2.10
67822;BMP180;54434;50.096;20.082;2023-04-03T10:25:23;99522.00;;;2.20
67822;BMP180;54434;50.096;20.082;2023-04-03T10:28:08;99518.60;;;2.20
67822;BMP180;54434;50.096;20.082;2023-04-03T10:30:56;99528.80;;;2.30
67822;BMP180;54434;50.096;20.082;2023-04-03T10:33:55;99527.60;;;2.30
67822;BMP180;54434;50.096;20.082;2023-04-03T10:36:45;99528.80;;;2.40
67822;BMP180;54434;50.096;20.082;2023-04-03T10:39:36;99526.60;;;2.40
67822;BMP180;54434;50.096;20.082;2023-04-03T10:42:26;99525.20;;;2.50
67822;BMP180;54434;50.096;20.082;2023-04-03T10:45:26;99529.60;;;2.50
67822;BMP180;54434;50.096;20.082;2023-04-03T10:48:15;99526.00;;;2.60
67822;BMP180;54434;50.096;20.082;2023-04-03T10:51:05;99522.40;;;2.70
67822;BMP180;54434;50.096;20.082;2023-04-03T10:53:55;99526.60;;;2.80
67822;BMP180;54434;50.096;20.082;2023-04-03T10:56:41;99531.80;;;2.80
67822;BMP180;54434;50.096;20.082;2023-04-03T10:59:28;99531.20;;;2.72
67822;BMP180;54434;50.096;20.082;2023-04-03T11:02:17;99528.80;;;2.80
67822;BMP180;54434;50.096;20.082;2023-04-03T11:05:03;99535.00;;;2.90
67822;BMP180;54434;50.096;20.082;2023-04-03T11:07:48;99539.00;;;3.00
67822;BMP180;54434;50.096;20.082;2023-04-03T11:10:36;99535.00;;;3.08
67822;BMP180;54434;50.096;20.082;2023-04-03T11:13:19;99534.40;;;3.16
67822;BMP180;54434;50.096;20.082;2023-04-03T11:17:39;99535.20;;;3.38
67822;BMP180;54434;50.096;20.082;2023-04-03T11:22:32;99537.20;;;3.50
67822;BMP180;54434;50.096;20.082;2023-04-03T11:25:24;99532.20;;;3.50
67822;BMP180;54434;50.096;20.082;2023-04-03T11:28:04;99531.60;;;3.52
67822;BMP180;54434;50.096;20.082;2023-04-03T11:30:51;99530.80;;;3.50
67822;BMP180;54434;50.096;20.082;2023-04-03T11:33:51;99533.20;;;3.60
67822;BMP180;54434;50.096;20.082;2023-04-03T11:36:34;99523.40;;;3.70
67822;BMP180;54434;50.096;20.082;2023-04-03T11:39:28;99526.60;;;3.80
67822;BMP180;54434;50.096;20.082;2023-04-03T11:45:45;99528.80;;;3.98
67822;BMP180;54434;50.096;20.082;2023-04-03T11:48:52;99528.80;;;3.90
67822;BMP180;54434;50.096;20.082;2023-04-03T11:51:56;99524.40;;;3.90
67822;BMP180;54434;50.096;20.082;2023-04-03T11:54:52;99525.80;;;4.00
67822;BMP180;54434;50.096;20.082;2023-04-03T11:58:16;99527.40;;;4.00
67822;BMP180;54434;50.096;20.082;2023-04-03T12:00:58;99516.40;;;4.10
67822;BMP180;54434;50.096;20.082;2023-04-03T12:04:12;99519.80;;;4.20
67822;BMP180;54434;50.096;20.082;2023-04-03T12:07:16;99518.40;;;4.24
67822;BMP180;54434;50.096;20.082;2023-04-03T12:10:16;99517.00;;;4.30
67822;BMP180;54434;50.096;20.082;2023-04-03T12:13:20;99520.20;;;4.30
67822;BMP180;54434;50.096;20.082;2023-04-03T12:15:57;99522.20;;;4.20
67822;BMP180;54434;50.096;20.082;2023-04-03T12:19:02;99525.20;;;4.10
67822;BMP180;54434;50.096;20.082;2023-04-03T12:22:23;99516.20;;;4.20
67822;BMP180;54434;50.096;20.082;2023-04-03T12:25:00;99519.00;;;4.30
67822;BMP180;54434;50.096;20.082;2023-04-03T12:27:55;99513.80;;;4.40
67822;BMP180;54434;50.096;20.082;2023-04-03T12:30:34;99513.40;;;4.50
67822;BMP180;54434;50.096;20.082;2023-04-03T12:33:33;99520.00;;;4.50
67822;BMP180;54434;50.096;20.082;2023-04-03T12:36:26;99520.20;;;4.50
67822;BMP180;54434;50.096;20.082;2023-04-03T12:39:29;99521.40;;;4.50
67822;BMP180;54434;50.096;20.082;2023-04-03T12:42:29;99515.40;;;4.44
67822;BMP180;54434;50.096;20.082;2023-04-03T12:45:20;99516.40;;;4.40
67822;BMP180;54434;50.096;20.082;2023-04-03T12:47:59;99519.20;;;4.40
67822;BMP180;54434;50.096;20.082;2023-04-03T12:50:38;99520.00;;;4.40
67822;BMP180;54434;50.096;20.082;2023-04-03T12:53:23;99526.60;;;4.30
67822;BMP180;54434;50.096;20.082;2023-04-03T12:56:23;99533.00;;;4.30
67822;BMP180;54434;50.096;20.082;2023-04-03T12:59:18;99526.80;;;4.20
67822;BMP180;54434;50.096;20.082;2023-04-03T13:02:02;99528.00;;;4.20
67822;BMP180;54434;50.096;20.082;2023-04-03T13:04:43;99527.20;;;4.20
67822;BMP180;54434;50.096;20.082;2023-04-03T13:07:31;99529.00;;;4.20
67822;BMP180;54434;50.096;20.082;2023-04-03T13:10:20;99529.80;;;4.30
67822;BMP180;54434;50.096;20.082;2023-04-03T13:13:07;99527.20;;;4.40
67822;BMP180;54434;50.096;20.082;2023-04-03T13:15:50;99531.40;;;4.32
67822;BMP180;54434;50.096;20.082;2023-04-03T13:18:35;99524.20;;;4.30
67822;BMP180;54434;50.096;20.082;2023-04-03T13:21:19;99526.20;;;4.30
67822;BMP180;54434;50.096;20.082;2023-04-03T13:24:01;99518.00;;;4.20
67822;BMP180;54434;50.096;20.082;2023-04-03T13:26:49;99519.80;;;4.30
67822;BMP180;54434;50.096;20.082;2023-04-03T13:29:32;99520.80;;;4.20
67822;BMP180;54434;50.096;20.082;2023-04-03T13:32:13;99524.00;;;4.18
67822;BMP180;54434;50.096;20.082;2023-04-03T13:34:53;99516.60;;;4.04
67822;BMP180;54434;50.096;20.082;2023-04-03T13:37:36;99508.20;;;4.00
67822;BMP180;54434;50.096;20.082;2023-04-03T13:40:17;99507.00;;;4.10
67822;BMP180;54434;50.096;20.082;2023-04-03T13:43:16;99517.40;;;4.08
67822;BMP180;54434;50.096;20.082;2023-04-03T13:46:19;99512.20;;;3.94
67822;BMP180;54434;50.096;20.082;2023-04-03T13:48:59;99525.20;;;3.90
67822;BMP180;54434;50.096;20.082;2023-04-03T13:51:53;99522.20;;;3.80
67822;BMP180;54434;50.096;20.082;2023-04-03T13:54:42;99518.00;;;3.84
67822;BMP180;54434;50.096;20.082;2023-04-03T13:57:22;99516.00;;;3.90
67822;BMP180;54434;50.096;20.082;2023-04-03T13:59:59;99521.20;;;3.90
67822;BMP180;54434;50.096;20.082;2023-04-03T14:02:39;99518.00;;;3.90
67822;BMP180;54434;50.096;20.082;2023-04-03T14:05:16;99521.00;;;3.84
67822;BMP180;54434;50.096;20.082;2023-04-03T14:07:56;99515.60;;;3.80
67822;BMP180;54434;50.096;20.082;2023-04-03T14:10:34;99518.00;;;3.70
67822;BMP180;54434;50.096;20.082;2023-04-03T14:13:13;99515.20;;;3.70
67822;BMP180;54434;50.096;20.082;2023-04-03T14:15:51;99510.60;;;3.74
67822;BMP180;54434;50.096;20.082;2023-04-03T14:18:30;99505.00;;;3.70
67822;BMP180;54434;50.096;20.082;2023-04-03T14:21:07;99511.20;;;3.60
67822;BMP180;54434;50.096;20.082;2023-04-03T14:23:43;99507.60;;;3.70
67822;BMP180;54434;50.096;20.082;2023-04-03T14:26:23;99503.60;;;3.60
67822;BMP180;54434;50.096;20.082;2023-04-03T14:29:01;99505.40;;;3.60
67822;BMP180;54434;50.096;20.082;2023-04-03T14:31:38;99503.80;;;3.60
67822;BMP180;54434;50.096;20.082;2023-04-03T14:34:17;99506.80;;;3.64
67822;BMP180;54434;50.096;20.082;2023-04-03T14:36:53;99501.20;;;3.62
67822;BMP180;54434;50.096;20.082;2023-04-03T14:39:30;99501.60;;;3.60
67822;BMP180;54434;50.096;20.082;2023-04-03T14:42:09;99502.40;;;3.60
67822;BMP180;54434;50.096;20.082;2023-04-03T14:44:48;99498.40;;;3.50
67822;BMP180;54434;50.096;20.082;2023-04-03T14:47:28;99500.20;;;3.50
67822;BMP180;54434;50.096;20.082;2023-04-03T14:50:14;99501.00;;;3.40
67822;BMP180;54434;50.096;20.082;2023-04-03T14:52:52;99501.80;;;3.40
67822;BMP180;54434;50.096;20.082;2023-04-03T14:55:30;99492.20;;;3.40
67822;BMP180;54434;50.096;20.082;2023-04-03T14:58:07;99496.80;;;3.30
67822;BMP180;54434;50.096;20.082;2023-04-03T15:00:45;99495.00;;;3.30
67822;BMP180;54434;50.096;20.082;2023-04-03T15:03:24;99496.80;;;3.30
67822;BMP180;54434;50.096;20.082;2023-04-03T15:06:01;99498.80;;;3.30
67822;BMP180;54434;50.096;20.082;2023-04-03T15:08:37;99500.20;;;3.30
67822;BMP180;54434;50.096;20.082;2023-04-03T15:11:16;99496.80;;;3.34
67822;BMP180;54434;50.096;20.082;2023-04-03T15:13:53;99492.60;;;3.30
67822;BMP180;54434;50.096;20.082;2023-04-03T15:16:29;99501.00;;;3.30
67822;BMP180;54434;50.096;20.082;2023-04-03T15:19:06;99501.00;;;3.20
67822;BMP180;54434;50.096;20.082;2023-04-03T15:21:43;99500.00;;;3.20
67822;BMP180;54434;50.096;20.082;2023-04-03T15:24:19;99495.60;;;3.28
67822;BMP180;54434;50.096;20.082;2023-04-03T15:26:55;99494.80;;;3.30
67822;BMP180;54434;50.096;20.082;2023-04-03T15:29:32;99492.80;;;3.32
67822;BMP180;54434;50.096;20.082;2023-04-03T15:32:09;99498.40;;;3.40
67822;BMP180;54434;50.096;20.082;2023-04-03T15:34:46;99495.60;;;3.40
67822;BMP180;54434;50.096;20.082;2023-04-03T15:37:22;99494.60;;;3.40
67822;BMP180;54434;50.096;20.082;2023-04-03T15:39:59;99493.40;;;3.40
67822;BMP180;54434;50.096;20.082;2023-04-03T15:42:36;99488.20;;;3.30